sensor_id;sensor_type;location;lat;lon;timestamp;temperature;humidity
38902;DHT22;24661;53.566;9.910;2022-09-09T00:00:24;14.90;99.90
38902;DHT22;24661;53.566;9.910;2022-09-09T00:02:59;14.90;99.90
38902;DHT22;24661;53.566;9.910;2022-09-09T00:08:20;15.00;99.90
38902;DHT22;24661;53.566;9.910;2022-09-09T00:10:54;15.00;99.90
38902;DHT22;24661;53.566;9.910;2022-09-09T00:14:03;14.90;99.90
38902;DHT22;24661;53.566;9.910;2022-09-09T00:16:35;15.00;99.90
38902;DHT22;24661;53.566;9.910;2022-09-09T00:19:08;15.00;99.90
38902;DHT22;24661;53.566;9.910;2022-09-09T00:21:57;15.00;99.90
38902;DHT22;24661;53.566;9.910;2022-09-09T00:24:34;15.00;99.90
38902;DHT22;24661;53.566;9.910;2022-09-09T00:27:40;15.00;99.90
38902;DHT22;24661;53.566;9.910;2022-09-09T00:32:44;15.00;99.90
38902;DHT22;24661;53.566;9.910;2022-09-09T00:37:35;15.00;99.90
38902;DHT22;24661;53.566;9.910;2022-09-09T00:40:12;15.00;99.90
38902;DHT22;24661;53.566;9.910;2022-09-09T00:42:43;15.00;99.90
38902;DHT22;24661;53.566;9.910;2022-09-09T00:48:11;15.00;99.90
38902;DHT22;24661;53.566;9.910;2022-09-09T00:50:55;15.00;99.90
38902;DHT22;24661;53.566;9.910;2022-09-09T00:56:20;14.90;99.90
38902;DHT22;24661;53.566;9.910;2022-09-09T01:02:07;15.00;99.90
38902;DHT22;24661;53.566;9.910;2022-09-09T01:04:38;15.00;99.90
38902;DHT22;24661;53.566;9.910;2022-09-09T01:07:14;14.90;99.90
38902;DHT22;24661;53.566;9.910;2022-09-09T01:09:59;15.00;99.90
38902;DHT22;24661;53.566;9.910;2022-09-09T01:12:44;14.90;99.90
38902;DHT22;24661;53.566;9.910;2022-09-09T01:15:14;14.80;99.90
38902;DHT22;24661;53.566;9.910;2022-09-09T01:20:47;14.80;99.90
38902;DHT22;24661;53.566;9.910;2022-09-09T01:28:57;14.70;99.90
38902;DHT22;24661;53.566;9.910;2022-09-09T01:31:29;14.70;99.90
38902;DHT22;24661;53.566;9.910;2022-09-09T01:33:56;14.60;99.90
38902;DHT22;24661;53.566;9.910;2022-09-09T01:36:34;14.70;99.90
38902;DHT22;24661;53.566;9.910;2022-09-09T01:39:03;14.60;99.90
38902;DHT22;24661;53.566;9.910;2022-09-09T01:41:29;14.50;99.90
38902;DHT22;24661;53.566;9.910;2022-09-09T01:43:55;14.40;99.90
38902;DHT22;24661;53.566;9.910;2022-09-09T01:46:22;14.50;99.90
38902;DHT22;24661;53.566;9.910;2022-09-09T01:48:50;14.40;99.90
38902;DHT22;24661;53.566;9.910;2022-09-09T01:51:16;14.40;99.90
38902;DHT22;24661;53.566;9.910;2022-09-09T01:53:43;14.40;99.90
38902;DHT22;24661;53.566;9.910;2022-09-09T02:02:12;14.40;99.90
38902;DHT22;24661;53.566;9.910;2022-09-09T02:04:43;14.40;99.90
38902;DHT22;24661;53.566;9.910;2022-09-09T02:12:36;14.30;99.90
38902;DHT22;24661;53.566;9.910;2022-09-09T02:15:11;14.30;99.90
38902;DHT22;24661;53.566;9.910;2022-09-09T02:17:41;14.30;99.90
38902;DHT22;24661;53.566;9.910;2022-09-09T02:20:12;14.30;99.90
38902;DHT22;24661;53.566;9.910;2022-09-09T02:22:40;14.30;99.90
38902;DHT22;24661;53.566;9.910;2022-09-09T02:25:10;14.30;99.90
38902;DHT22;24661;53.566;9.910;2022-09-09T02:27:38;14.30;99.90
38902;DHT22;24661;53.566;9.910;2022-09-09T02:30:06;14.30;99.90
38902;DHT22;24661;53.566;9.910;2022-09-09T02:32:34;14.30;99.90
38902;DHT22;24661;53.566;9.910;2022-09-09T02:35:08;14.20;99.90
38902;DHT22;24661;53.566;9.910;2022-09-09T02:37:39;16.70;99.90
38902;DHT22;24661;53.566;9.910;2022-09-09T02:40:08;14.30;99.90
38902;DHT22;24661;53.566;9.910;2022-09-09T02:42:42;14.20;99.90
38902;DHT22;24661;53.566;9.910;2022-09-09T02:45:10;14.20;99.90
38902;DHT22;24661;53.566;9.910;2022-09-09T02:47:58;14.10;99.90
38902;DHT22;24661;53.566;9.910;2022-09-09T02:50:32;14.10;99.90
38902;DHT22;24661;53.566;9.910;2022-09-09T02:53:06;14.00;99.90
38902;DHT22;24661;53.566;9.910;2022-09-09T02:55:57;14.00;99.90
38902;DHT22;24661;53.566;9.910;2022-09-09T02:58:23;14.00;99.90
38902;DHT22;24661;53.566;9.910;2022-09-09T03:00:50;13.90;99.90
38902;DHT22;24661;53.566;9.910;2022-09-09T03:03:17;13.90;99.90
38902;DHT22;24661;53.566;9.910;2022-09-09T03:05:44;13.90;99.90
38902;DHT22;24661;53.566;9.910;2022-09-09T03:08:11;13.90;99.90
38902;DHT22;24661;53.566;9.910;2022-09-09T03:10:39;13.90;99.90
38902;DHT22;24661;53.566;9.910;2022-09-09T03:13:05;13.90;99.90
38902;DHT22;24661;53.566;9.910;2022-09-09T03:15:32;13.90;99.90
38902;DHT22;24661;53.566;9.910;2022-09-09T03:17:58;13.90;99.90
38902;DHT22;24661;53.566;9.910;2022-09-09T03:20:26;13.90;99.90
38902;DHT22;24661;53.566;9.910;2022-09-09T03:22:53;13.80;99.90
38902;DHT22;24661;53.566;9.910;2022-09-09T03:25:19;13.90;99.90
38902;DHT22;24661;53.566;9.910;2022-09-09T03:27:45;13.80;99.90
38902;DHT22;24661;53.566;9.910;2022-09-09T03:30:11;13.70;99.90
38902;DHT22;24661;53.566;9.910;2022-09-09T03:32:37;13.70;99.90
38902;DHT22;24661;53.566;9.910;2022-09-09T03:35:03;13.70;99.90
38902;DHT22;24661;53.566;9.910;2022-09-09T03:39:54;13.80;99.90
38902;DHT22;24661;53.566;9.910;2022-09-09T03:42:20;13.80;99.90
38902;DHT22;24661;53.566;9.910;2022-09-09T03:44:48;15.50;99.90
38902;DHT22;24661;53.566;9.910;2022-09-09T03:52:08;13.60;99.90
38902;DHT22;24661;53.566;9.910;2022-09-09T03:57:01;13.60;99.90
38902;DHT22;24661;53.566;9.910;2022-09-09T03:59:27;13.60;99.90
38902;DHT22;24661;53.566;9.910;2022-09-09T04:01:53;13.50;99.90
38902;DHT22;24661;53.566;9.910;2022-09-09T04:04:20;13.50;99.90
38902;DHT22;24661;53.566;9.910;2022-09-09T04:06:46;13.50;99.90
38902;DHT22;24661;53.566;9.910;2022-09-09T04:09:14;13.50;99.90
38902;DHT22;24661;53.566;9.910;2022-09-09T04:11:39;13.50;99.90
38902;DHT22;24661;53.566;9.910;2022-09-09T04:16:32;13.50;99.90
38902;DHT22;24661;53.566;9.910;2022-09-09T04:21:25;13.50;99.90
38902;DHT22;24661;53.566;9.910;2022-09-09T04:23:51;13.50;99.90
38902;DHT22;24661;53.566;9.910;2022-09-09T04:26:18;13.50;99.90
38902;DHT22;24661;53.566;9.910;2022-09-09T04:28:44;13.50;99.90
38902;DHT22;24661;53.566;9.910;2022-09-09T04:31:14;13.40;99.90
38902;DHT22;24661;53.566;9.910;2022-09-09T04:33:40;13.40;99.90
38902;DHT22;24661;53.566;9.910;2022-09-09T04:36:07;13.30;99.90
38902;DHT22;24661;53.566;9.910;2022-09-09T04:38:33;13.40;99.90
38902;DHT22;24661;53.566;9.910;2022-09-09T04:43:25;13.40;99.90
38902;DHT22;24661;53.566;9.910;2022-09-09T04:48:18;13.50;99.90
38902;DHT22;24661;53.566;9.910;2022-09-09T04:50:44;13.60;99.90
38902;DHT22;24661;53.566;9.910;2022-09-09T04:55:36;13.70;99.90
38902;DHT22;24661;53.566;9.910;2022-09-09T04:58:08;13.70;99.90
38902;DHT22;24661;53.566;9.910;2022-09-09T05:00:37;13.70;99.90
38902;DHT22;24661;53.566;9.910;2022-09-09T05:03:06;13.80;99.90
38902;DHT22;24661;53.566;9.910;2022-09-09T05:05:35;13.80;99.90
38902;DHT22;24661;53.566;9.910;2022-09-09T05:08:05;13.80;99.90
38902;DHT22;24661;53.566;9.910;2022-09-09T05:10:33;13.80;99.90
38902;DHT22;24661;53.566;9.910;2022-09-09T05:17:51;13.70;99.90
38902;DHT22;24661;53.566;9.910;2022-09-09T05:20:18;13.80;99.90
38902;DHT22;24661;53.566;9.910;2022-09-09T05:22:44;13.80;99.90
38902;DHT22;24661;53.566;9.910;2022-09-09T05:27:36;13.70;99.90
38902;DHT22;24661;53.566;9.910;2022-09-09T05:30:01;13.70;99.90
38902;DHT22;24661;53.566;9.910;2022-09-09T05:32:29;13.70;99.90
38902;DHT22;24661;53.566;9.910;2022-09-09T05:34:57;13.70;99.90
38902;DHT22;24661;53.566;9.910;2022-09-09T05:39:50;13.70;99.90
38902;DHT22;24661;53.566;9.910;2022-09-09T05:44:42;13.80;99.90
38902;DHT22;24661;53.566;9.910;2022-09-09T05:49:37;13.90;99.90
38902;DHT22;24661;53.566;9.910;2022-09-09T05:52:02;14.00;99.90
38902;DHT22;24661;53.566;9.910;2022-09-09T05:56:56;14.20;99.90
38902;DHT22;24661;53.566;9.910;2022-09-09T05:59:21;14.30;99.90
38902;DHT22;24661;53.566;9.910;2022-09-09T06:01:49;14.40;99.90
38902;DHT22;24661;53.566;9.910;2022-09-09T06:06:41;14.50;99.90
38902;DHT22;24661;53.566;9.910;2022-09-09T06:09:08;14.50;99.90
38902;DHT22;24661;53.566;9.910;2022-09-09T06:11:38;14.60;99.90
38902;DHT22;24661;53.566;9.910;2022-09-09T06:14:04;14.70;99.90
38902;DHT22;24661;53.566;9.910;2022-09-09T06:16:31;14.70;99.90
38902;DHT22;24661;53.566;9.910;2022-09-09T06:19:01;14.80;99.90
38902;DHT22;24661;53.566;9.910;2022-09-09T06:21:30;14.80;99.90
38902;DHT22;24661;53.566;9.910;2022-09-09T06:23:56;14.90;99.90
38902;DHT22;24661;53.566;9.910;2022-09-09T06:26:24;14.80;99.90
38902;DHT22;24661;53.566;9.910;2022-09-09T06:28:53;14.80;99.90
38902;DHT22;24661;53.566;9.910;2022-09-09T06:31:21;14.80;99.90
38902;DHT22;24661;53.566;9.910;2022-09-09T06:33:51;14.90;99.90
38902;DHT22;24661;53.566;9.910;2022-09-09T06:36:22;14.90;99.90
38902;DHT22;24661;53.566;9.910;2022-09-09T06:38:49;14.90;99.90
38902;DHT22;24661;53.566;9.910;2022-09-09T06:41:17;15.00;99.90
38902;DHT22;24661;53.566;9.910;2022-09-09T06:43:44;15.00;99.90
38902;DHT22;24661;53.566;9.910;2022-09-09T06:46:12;15.00;99.90
38902;DHT22;24661;53.566;9.910;2022-09-09T06:48:40;15.10;99.90
38902;DHT22;24661;53.566;9.910;2022-09-09T06:51:18;15.10;99.90
38902;DHT22;24661;53.566;9.910;2022-09-09T06:53:45;15.10;99.90
38902;DHT22;24661;53.566;9.910;2022-09-09T06:56:24;15.10;99.90
38902;DHT22;24661;53.566;9.910;2022-09-09T06:58:51;15.30;99.90
38902;DHT22;24661;53.566;9.910;2022-09-09T07:01:19;15.20;99.90
38902;DHT22;24661;53.566;9.910;2022-09-09T07:03:51;15.40;99.90
38902;DHT22;24661;53.566;9.910;2022-09-09T07:06:20;15.50;99.90
38902;DHT22;24661;53.566;9.910;2022-09-09T07:08:51;15.50;99.90
38902;DHT22;24661;53.566;9.910;2022-09-09T07:11:18;15.60;99.90
38902;DHT22;24661;53.566;9.910;2022-09-09T07:13:44;15.80;99.90
38902;DHT22;24661;53.566;9.910;2022-09-09T07:16:11;15.70;99.90
38902;DHT22;24661;53.566;9.910;2022-09-09T07:18:39;15.80;99.90
38902;DHT22;24661;53.566;9.910;2022-09-09T07:21:06;15.90;99.90
38902;DHT22;24661;53.566;9.910;2022-09-09T07:23:32;15.90;99.90
38902;DHT22;24661;53.566;9.910;2022-09-09T07:25:59;15.90;99.90
38902;DHT22;24661;53.566;9.910;2022-09-09T07:28:25;15.90;99.90
38902;DHT22;24661;53.566;9.910;2022-09-09T07:31:01;15.90;99.90
38902;DHT22;24661;53.566;9.910;2022-09-09T07:33:28;15.90;99.90
38902;DHT22;24661;53.566;9.910;2022-09-09T07:36:16;15.90;99.90
38902;DHT22;24661;53.566;9.910;2022-09-09T07:38:48;16.00;99.90
38902;DHT22;24661;53.566;9.910;2022-09-09T07:41:21;16.00;99.90
38902;DHT22;24661;53.566;9.910;2022-09-09T07:43:48;16.00;99.90
38902;DHT22;24661;53.566;9.910;2022-09-09T07:46:17;16.00;99.90
38902;DHT22;24661;53.566;9.910;2022-09-09T07:48:46;16.10;99.90
38902;DHT22;24661;53.566;9.910;2022-09-09T07:51:15;16.10;99.90
38902;DHT22;24661;53.566;9.910;2022-09-09T07:53:43;16.30;99.90
38902;DHT22;24661;53.566;9.910;2022-09-09T07:56:11;16.30;99.90
38902;DHT22;24661;53.566;9.910;2022-09-09T07:58:38;16.30;99.90
38902;DHT22;24661;53.566;9.910;2022-09-09T08:01:13;16.30;99.90
38902;DHT22;24661;53.566;9.910;2022-09-09T08:06:08;16.40;99.90
38902;DHT22;24661;53.566;9.910;2022-09-09T08:08:35;17.30;99.90
38902;DHT22;24661;53.566;9.910;2022-09-09T08:11:08;16.40;99.90
38902;DHT22;24661;53.566;9.910;2022-09-09T08:13:39;16.50;99.90
38902;DHT22;24661;53.566;9.910;2022-09-09T08:16:14;16.50;99.90
38902;DHT22;24661;53.566;9.910;2022-09-09T08:18:40;16.50;99.90
38902;DHT22;24661;53.566;9.910;2022-09-09T08:21:08;16.50;99.90
38902;DHT22;24661;53.566;9.910;2022-09-09T08:23:34;16.40;99.90
38902;DHT22;24661;53.566;9.910;2022-09-09T08:26:12;16.50;99.90
38902;DHT22;24661;53.566;9.910;2022-09-09T08:28:39;16.60;99.90
38902;DHT22;24661;53.566;9.910;2022-09-09T08:31:14;16.70;99.90
38902;DHT22;24661;53.566;9.910;2022-09-09T08:33:41;16.70;99.90
38902;DHT22;24661;53.566;9.910;2022-09-09T08:36:09;16.90;99.90
38902;DHT22;24661;53.566;9.910;2022-09-09T08:38:35;17.00;99.90
38902;DHT22;24661;53.566;9.910;2022-09-09T08:43:51;17.10;99.90
38902;DHT22;24661;53.566;9.910;2022-09-09T08:51:31;17.30;99.90
38902;DHT22;24661;53.566;9.910;2022-09-09T08:54:02;17.30;99.90
38902;DHT22;24661;53.566;9.910;2022-09-09T08:56:31;17.30;99.90
38902;DHT22;24661;53.566;9.910;2022-09-09T08:59:00;17.40;99.90
38902;DHT22;24661;53.566;9.910;2022-09-09T09:01:57;17.50;99.90
38902;DHT22;24661;53.566;9.910;2022-09-09T09:07:02;17.60;99.90
38902;DHT22;24661;53.566;9.910;2022-09-09T09:10:02;17.70;99.90
38902;DHT22;24661;53.566;9.910;2022-09-09T09:12:38;18.10;99.90
38902;DHT22;24661;53.566;9.910;2022-09-09T09:15:16;18.10;99.90
38902;DHT22;24661;53.566;9.910;2022-09-09T09:17:43;18.40;99.90
38902;DHT22;24661;53.566;9.910;2022-09-09T09:20:16;18.60;99.90
38902;DHT22;24661;53.566;9.910;2022-09-09T09:22:52;18.70;99.90
38902;DHT22;24661;53.566;9.910;2022-09-09T09:25:29;18.70;99.90
38902;DHT22;24661;53.566;9.910;2022-09-09T09:28:03;20.40;99.90
38902;DHT22;24661;53.566;9.910;2022-09-09T09:30:39;19.00;99.90
38902;DHT22;24661;53.566;9.910;2022-09-09T09:33:34;18.90;99.90
38902;DHT22;24661;53.566;9.910;2022-09-09T09:36:01;19.00;99.90
38902;DHT22;24661;53.566;9.910;2022-09-09T09:38:28;19.00;99.90
38902;DHT22;24661;53.566;9.910;2022-09-09T09:40:58;19.00;99.90
38902;DHT22;24661;53.566;9.910;2022-09-09T09:43:29;18.90;99.90
38902;DHT22;24661;53.566;9.910;2022-09-09T09:45:55;18.90;99.90
38902;DHT22;24661;53.566;9.910;2022-09-09T09:48:24;18.90;99.90
38902;DHT22;24661;53.566;9.910;2022-09-09T09:53:29;18.90;99.90
38902;DHT22;24661;53.566;9.910;2022-09-09T09:55:59;18.90;99.90
38902;DHT22;24661;53.566;9.910;2022-09-09T09:58:27;18.80;99.90
38902;DHT22;24661;53.566;9.910;2022-09-09T10:00:56;19.00;99.90
38902;DHT22;24661;53.566;9.910;2022-09-09T10:03:33;19.20;99.90
38902;DHT22;24661;53.566;9.910;2022-09-09T10:06:04;19.20;99.90
38902;DHT22;24661;53.566;9.910;2022-09-09T10:08:34;19.20;99.90
38902;DHT22;24661;53.566;9.910;2022-09-09T10:24:55;16.30;99.90
38902;DHT22;24661;53.566;9.910;2022-09-09T10:28:01;19.20;99.90
38902;DHT22;24661;53.566;9.910;2022-09-09T10:33:57;19.30;99.90
38902;DHT22;24661;53.566;9.910;2022-09-09T10:36:27;19.40;99.90
38902;DHT22;24661;53.566;9.910;2022-09-09T10:42:12;19.50;99.90
38902;DHT22;24661;53.566;9.910;2022-09-09T10:45:02;19.70;99.90
38902;DHT22;24661;53.566;9.910;2022-09-09T10:53:47;19.90;99.90
38902;DHT22;24661;53.566;9.910;2022-09-09T10:56:20;20.00;99.90
38902;DHT22;24661;53.566;9.910;2022-09-09T10:59:00;20.00;99.90
38902;DHT22;24661;53.566;9.910;2022-09-09T11:01:41;20.00;99.90
38902;DHT22;24661;53.566;9.910;2022-09-09T11:04:33;20.90;99.90
38902;DHT22;24661;53.566;9.910;2022-09-09T11:07:07;16.50;99.90
38902;DHT22;24661;53.566;9.910;2022-09-09T11:09:38;20.10;99.90
38902;DHT22;24661;53.566;9.910;2022-09-09T11:12:12;19.90;99.90
38902;DHT22;24661;53.566;9.910;2022-09-09T11:14:44;20.00;99.90
38902;DHT22;24661;53.566;9.910;2022-09-09T11:17:15;20.00;99.90
38902;DHT22;24661;53.566;9.910;2022-09-09T11:19:44;20.00;99.90
38902;DHT22;24661;53.566;9.910;2022-09-09T11:25:08;20.00;99.90
38902;DHT22;24661;53.566;9.910;2022-09-09T11:30:52;20.30;99.90
38902;DHT22;24661;53.566;9.910;2022-09-09T11:38:50;20.80;99.90
38902;DHT22;24661;53.566;9.910;2022-09-09T11:41:19;20.80;99.90
38902;DHT22;24661;53.566;9.910;2022-09-09T11:43:52;20.70;99.90
38902;DHT22;24661;53.566;9.910;2022-09-09T11:46:22;20.80;99.90
38902;DHT22;24661;53.566;9.910;2022-09-09T11:49:00;20.90;99.90
38902;DHT22;24661;53.566;9.910;2022-09-09T11:51:28;20.90;99.90
38902;DHT22;24661;53.566;9.910;2022-09-09T11:53:56;20.80;99.90
38902;DHT22;24661;53.566;9.910;2022-09-09T11:59:31;20.70;99.90
38902;DHT22;24661;53.566;9.910;2022-09-09T12:02:02;20.60;99.90
38902;DHT22;24661;53.566;9.910;2022-09-09T12:05:16;20.60;99.90
38902;DHT22;24661;53.566;9.910;2022-09-09T12:07:33;20.70;99.90
38902;DHT22;24661;53.566;9.910;2022-09-09T12:10:04;20.80;99.90
38902;DHT22;24661;53.566;9.910;2022-09-09T12:12:38;21.00;99.90
38902;DHT22;24661;53.566;9.910;2022-09-09T12:17:41;21.10;99.90
38902;DHT22;24661;53.566;9.910;2022-09-09T12:20:14;21.00;99.90
38902;DHT22;24661;53.566;9.910;2022-09-09T12:31:08;20.60;99.90
38902;DHT22;24661;53.566;9.910;2022-09-09T12:33:39;20.60;99.90
38902;DHT22;24661;53.566;9.910;2022-09-09T12:36:29;20.40;99.90
38902;DHT22;24661;53.566;9.910;2022-09-09T12:38:59;20.40;99.90
38902;DHT22;24661;53.566;9.910;2022-09-09T12:41:36;20.30;99.90
38902;DHT22;24661;53.566;9.910;2022-09-09T12:44:06;20.30;99.90
38902;DHT22;24661;53.566;9.910;2022-09-09T12:46:40;20.20;99.90
38902;DHT22;24661;53.566;9.910;2022-09-09T12:49:30;20.30;99.90
38902;DHT22;24661;53.566;9.910;2022-09-09T12:52:07;18.60;99.90
38902;DHT22;24661;53.566;9.910;2022-09-09T12:54:36;20.20;99.90
38902;DHT22;24661;53.566;9.910;2022-09-09T12:57:03;20.10;99.90
38902;DHT22;24661;53.566;9.910;2022-09-09T12:59:38;20.00;99.90
38902;DHT22;24661;53.566;9.910;2022-09-09T13:02:26;19.80;99.90
38902;DHT22;24661;53.566;9.910;2022-09-09T13:07:20;19.70;99.90
38902;DHT22;24661;53.566;9.910;2022-09-09T13:09:48;19.60;99.90
38902;DHT22;24661;53.566;9.910;2022-09-09T13:12:23;19.60;99.90
38902;DHT22;24661;53.566;9.910;2022-09-09T13:14:52;19.50;99.90
38902;DHT22;24661;53.566;9.910;2022-09-09T13:17:26;19.40;99.90
38902;DHT22;24661;53.566;9.910;2022-09-09T13:19:55;19.30;99.90
38902;DHT22;24661;53.566;9.910;2022-09-09T13:22:37;19.30;99.90
38902;DHT22;24661;53.566;9.910;2022-09-09T13:27:37;18.90;99.90
38902;DHT22;24661;53.566;9.910;2022-09-09T13:30:27;18.80;99.90
38902;DHT22;24661;53.566;9.910;2022-09-09T13:33:03;18.50;99.90
38902;DHT22;24661;53.566;9.910;2022-09-09T13:38:23;18.10;99.90
38902;DHT22;24661;53.566;9.910;2022-09-09T13:41:02;18.10;99.90
38902;DHT22;24661;53.566;9.910;2022-09-09T13:44:02;15.20;99.90
38902;DHT22;24661;53.566;9.910;2022-09-09T13:47:03;17.90;99.90
38902;DHT22;24661;53.566;9.910;2022-09-09T13:49:30;17.80;99.90
38902;DHT22;24661;53.566;9.910;2022-09-09T13:52:10;17.80;99.90
38902;DHT22;24661;53.566;9.910;2022-09-09T13:57:03;17.60;99.90
38902;DHT22;24661;53.566;9.910;2022-09-09T13:59:30;17.50;99.90
38902;DHT22;24661;53.566;9.910;2022-09-09T14:01:57;17.50;99.90
38902;DHT22;24661;53.566;9.910;2022-09-09T14:04:24;17.50;99.90
38902;DHT22;24661;53.566;9.910;2022-09-09T14:06:51;17.50;99.90
38902;DHT22;24661;53.566;9.910;2022-09-09T14:09:17;17.50;99.90
38902;DHT22;24661;53.566;9.910;2022-09-09T14:11:44;17.60;99.90
38902;DHT22;24661;53.566;9.910;2022-09-09T14:16:40;17.60;99.90
38902;DHT22;24661;53.566;9.910;2022-09-09T14:19:08;17.50;99.90
38902;DHT22;24661;53.566;9.910;2022-09-09T14:33:47;17.40;99.90
38902;DHT22;24661;53.566;9.910;2022-09-09T14:41:13;17.30;99.90
38902;DHT22;24661;53.566;9.910;2022-09-09T14:43:42;17.30;99.90
38902;DHT22;24661;53.566;9.910;2022-09-09T14:46:11;17.30;99.90
38902;DHT22;24661;53.566;9.910;2022-09-09T14:48:38;17.30;99.90
38902;DHT22;24661;53.566;9.910;2022-09-09T14:51:10;17.30;99.90
38902;DHT22;24661;53.566;9.910;2022-09-09T14:53:36;17.20;99.90
38902;DHT22;24661;53.566;9.910;2022-09-09T14:56:14;17.30;99.90
38902;DHT22;24661;53.566;9.910;2022-09-09T14:58:40;17.30;99.90
38902;DHT22;24661;53.566;9.910;2022-09-09T15:01:08;17.30;99.90
38902;DHT22;24661;53.566;9.910;2022-09-09T15:03:38;17.20;99.90
38902;DHT22;24661;53.566;9.910;2022-09-09T15:06:06;17.20;99.90
38902;DHT22;24661;53.566;9.910;2022-09-09T15:08:35;17.10;99.90
38902;DHT22;24661;53.566;9.910;2022-09-09T15:11:03;17.20;99.90
38902;DHT22;24661;53.566;9.910;2022-09-09T15:13:30;17.20;99.90
38902;DHT22;24661;53.566;9.910;2022-09-09T15:16:02;17.20;99.90
38902;DHT22;24661;53.566;9.910;2022-09-09T15:18:28;17.20;99.90
38902;DHT22;24661;53.566;9.910;2022-09-09T15:20:54;17.10;99.90
38902;DHT22;24661;53.566;9.910;2022-09-09T15:23:20;17.00;99.90
38902;DHT22;24661;53.566;9.910;2022-09-09T15:26:12;17.00;99.90
38902;DHT22;24661;53.566;9.910;2022-09-09T15:28:42;16.90;99.90
38902;DHT22;24661;53.566;9.910;2022-09-09T15:31:23;17.00;99.90
38902;DHT22;24661;53.566;9.910;2022-09-09T15:34:03;17.00;99.90
38902;DHT22;24661;53.566;9.910;2022-09-09T15:38:55;17.00;99.90
38902;DHT22;24661;53.566;9.910;2022-09-09T15:41:23;17.00;99.90
38902;DHT22;24661;53.566;9.910;2022-09-09T15:43:52;17.00;99.90
38902;DHT22;24661;53.566;9.910;2022-09-09T15:48:51;17.10;99.90
38902;DHT22;24661;53.566;9.910;2022-09-09T15:51:25;17.10;99.90
38902;DHT22;24661;53.566;9.910;2022-09-09T15:53:58;17.20;99.90
38902;DHT22;24661;53.566;9.910;2022-09-09T15:56:30;17.20;99.90
38902;DHT22;24661;53.566;9.910;2022-09-09T15:59:32;17.20;99.90
38902;DHT22;24661;53.566;9.910;2022-09-09T16:04:54;17.40;99.90
38902;DHT22;24661;53.566;9.910;2022-09-09T16:09:52;17.50;99.90
38902;DHT22;24661;53.566;9.910;2022-09-09T16:17:14;17.40;99.90
38902;DHT22;24661;53.566;9.910;2022-09-09T16:19:42;17.40;99.90
38902;DHT22;24661;53.566;9.910;2022-09-09T16:22:14;17.40;99.90
38902;DHT22;24661;53.566;9.910;2022-09-09T16:24:41;17.40;99.90
38902;DHT22;24661;53.566;9.910;2022-09-09T16:27:13;17.30;99.90
38902;DHT22;24661;53.566;9.910;2022-09-09T16:29:46;17.20;99.90
38902;DHT22;24661;53.566;9.910;2022-09-09T16:32:13;17.20;99.90
38902;DHT22;24661;53.566;9.910;2022-09-09T16:34:43;17.20;99.90
38902;DHT22;24661;53.566;9.910;2022-09-09T16:39:36;17.20;99.90
38902;DHT22;24661;53.566;9.910;2022-09-09T16:44:30;17.30;99.90
38902;DHT22;24661;53.566;9.910;2022-09-09T16:46:56;17.20;99.90
38902;DHT22;24661;53.566;9.910;2022-09-09T16:51:49;17.20;99.90
38902;DHT22;24661;53.566;9.910;2022-09-09T16:54:24;17.20;99.90
38902;DHT22;24661;53.566;9.910;2022-09-09T16:56:52;17.10;99.90
38902;DHT22;24661;53.566;9.910;2022-09-09T16:59:21;17.00;99.90
38902;DHT22;24661;53.566;9.910;2022-09-09T17:01:49;17.00;99.90
38902;DHT22;24661;53.566;9.910;2022-09-09T17:04:19;17.00;99.90
38902;DHT22;24661;53.566;9.910;2022-09-09T17:06:56;16.90;99.90
38902;DHT22;24661;53.566;9.910;2022-09-09T17:09:29;16.90;99.90
38902;DHT22;24661;53.566;9.910;2022-09-09T17:12:03;16.80;99.90
38902;DHT22;24661;53.566;9.910;2022-09-09T17:14:31;16.80;99.90
38902;DHT22;24661;53.566;9.910;2022-09-09T17:16:57;16.70;99.90
38902;DHT22;24661;53.566;9.910;2022-09-09T17:19:30;16.70;99.90
38902;DHT22;24661;53.566;9.910;2022-09-09T17:21:57;16.70;99.90
38902;DHT22;24661;53.566;9.910;2022-09-09T17:24:27;16.60;99.90
38902;DHT22;24661;53.566;9.910;2022-09-09T17:26:57;16.60;99.90
38902;DHT22;24661;53.566;9.910;2022-09-09T17:31:50;16.50;99.90
38902;DHT22;24661;53.566;9.910;2022-09-09T17:34:19;16.50;99.90
38902;DHT22;24661;53.566;9.910;2022-09-09T17:36:46;16.40;99.90
38902;DHT22;24661;53.566;9.910;2022-09-09T17:39:13;16.30;99.90
38902;DHT22;24661;53.566;9.910;2022-09-09T17:41:42;16.30;99.90
38902;DHT22;24661;53.566;9.910;2022-09-09T17:44:14;16.20;99.90
38902;DHT22;24661;53.566;9.910;2022-09-09T17:46:44;16.20;99.90
38902;DHT22;24661;53.566;9.910;2022-09-09T17:49:12;16.10;99.90
38902;DHT22;24661;53.566;9.910;2022-09-09T17:51:50;16.10;99.90
38902;DHT22;24661;53.566;9.910;2022-09-09T17:54:19;16.00;99.90
38902;DHT22;24661;53.566;9.910;2022-09-09T17:56:51;16.00;99.90
38902;DHT22;24661;53.566;9.910;2022-09-09T17:59:18;15.90;99.90
38902;DHT22;24661;53.566;9.910;2022-09-09T18:01:50;15.90;99.90
38902;DHT22;24661;53.566;9.910;2022-09-09T18:04:18;15.80;99.90
38902;DHT22;24661;53.566;9.910;2022-09-09T18:06:53;15.80;99.90
38902;DHT22;24661;53.566;9.910;2022-09-09T18:09:22;15.80;99.90
38902;DHT22;24661;53.566;9.910;2022-09-09T18:11:54;15.70;99.90
38902;DHT22;24661;53.566;9.910;2022-09-09T18:14:29;15.70;99.90
38902;DHT22;24661;53.566;9.910;2022-09-09T18:16:57;15.70;99.90
38902;DHT22;24661;53.566;9.910;2022-09-09T18:19:41;15.70;99.90
38902;DHT22;24661;53.566;9.910;2022-09-09T18:22:10;15.70;99.90
38902;DHT22;24661;53.566;9.910;2022-09-09T18:34:32;15.80;99.90
38902;DHT22;24661;53.566;9.910;2022-09-09T18:37:10;12.90;99.90
38902;DHT22;24661;53.566;9.910;2022-09-09T18:39:44;15.80;99.90
38902;DHT22;24661;53.566;9.910;2022-09-09T18:42:14;15.90;99.90
38902;DHT22;24661;53.566;9.910;2022-09-09T18:44:46;15.80;99.90
38902;DHT22;24661;53.566;9.910;2022-09-09T18:47:16;15.90;99.90
38902;DHT22;24661;53.566;9.910;2022-09-09T18:49:48;15.80;99.90
38902;DHT22;24661;53.566;9.910;2022-09-09T18:52:21;15.80;99.90
38902;DHT22;24661;53.566;9.910;2022-09-09T18:54:58;15.70;99.90
38902;DHT22;24661;53.566;9.910;2022-09-09T18:57:26;15.90;99.90
38902;DHT22;24661;53.566;9.910;2022-09-09T18:59:55;15.90;99.90
38902;DHT22;24661;53.566;9.910;2022-09-09T19:02:25;15.90;99.90
38902;DHT22;24661;53.566;9.910;2022-09-09T19:04:52;16.00;99.90
38902;DHT22;24661;53.566;9.910;2022-09-09T19:07:34;16.00;99.90
38902;DHT22;24661;53.566;9.910;2022-09-09T19:10:08;16.00;99.90
38902;DHT22;24661;53.566;9.910;2022-09-09T19:12:41;16.00;99.90
38902;DHT22;24661;53.566;9.910;2022-09-09T19:15:10;15.90;99.90
38902;DHT22;24661;53.566;9.910;2022-09-09T19:17:37;15.90;99.90
38902;DHT22;24661;53.566;9.910;2022-09-09T19:20:04;15.90;99.90
38902;DHT22;24661;53.566;9.910;2022-09-09T19:22:36;15.90;99.90
38902;DHT22;24661;53.566;9.910;2022-09-09T19:25:11;15.70;99.90